createdAt,value
2023-12-01T00:01:47.266Z,95348.78
2023-12-01T00:04:13.800Z,95337.31
2023-12-01T00:06:40.376Z,95344.03
2023-12-01T00:09:06.804Z,95341.34
2023-12-01T00:11:33.310Z,95346.50
2023-12-01T00:13:59.747Z,95340.31
2023-12-01T00:16:26.157Z,95330.00
2023-12-01T00:18:52.620Z,95315.81
2023-12-01T00:21:19.046Z,95317.81
2023-12-01T00:23:45.448Z,95315.94
2023-12-01T00:26:11.835Z,95308.97
2023-12-01T00:28:38.269Z,95305.50
2023-12-01T00:31:04.690Z,95307.69
2023-12-01T00:33:31.254Z,95321.63
2023-12-01T00:35:57.680Z,95321.63
2023-12-01T00:38:24.102Z,95321.44
2023-12-01T00:40:50.514Z,95334.56
2023-12-01T00:43:17.007Z,95339.31
2023-12-01T00:45:43.524Z,95334.41
2023-12-01T00:48:09.993Z,95316.75
2023-12-01T00:50:36.483Z,95322.47
2023-12-01T00:53:02.924Z,95326.97
2023-12-01T00:55:29.348Z,95343.00
2023-12-01T00:57:55.919Z,95348.59
2023-12-01T01:00:22.467Z,95353.09
2023-12-01T01:02:48.932Z,95350.75
2023-12-01T01:05:15.477Z,95348.88
2023-12-01T01:07:41.907Z,95350.66
2023-12-01T01:10:08.394Z,95348.94
2023-12-01T01:12:34.861Z,95340.22
2023-12-01T01:15:01.293Z,95329.66
2023-12-01T01:17:27.725Z,95338.84
2023-12-01T01:19:54.128Z,95356.50
2023-12-01T01:22:20.515Z,95356.50
2023-12-01T01:24:47.025Z,95363.72
2023-12-01T01:27:13.501Z,95363.25
2023-12-01T01:29:39.937Z,95364.06
2023-12-01T01:32:07.244Z,95368.13
2023-12-01T01:34:33.758Z,95371.63
2023-12-01T01:37:00.263Z,95369.78
2023-12-01T01:39:26.719Z,95360.94
2023-12-01T01:41:53.188Z,95373.03
2023-12-01T01:44:19.626Z,95384.75
2023-12-01T01:46:46.121Z,95377.78
2023-12-01T01:49:12.653Z,95380.81
2023-12-01T01:51:39.192Z,95380.22
2023-12-01T01:54:05.641Z,95391.72
2023-12-01T01:56:32.042Z,95399.75
2023-12-01T01:58:58.489Z,95405.09
2023-12-01T02:01:25.084Z,95405.69
2023-12-01T02:03:51.602Z,95401.16
2023-12-01T02:06:18.030Z,95400.13
2023-12-01T02:08:44.571Z,95399.06
2023-12-01T02:11:10.962Z,95395.34
2023-12-01T02:13:37.392Z,95389.78
2023-12-01T02:16:03.813Z,95390.00
2023-12-01T02:18:30.359Z,95378.50
2023-12-01T02:20:56.811Z,95362.94
2023-12-01T02:23:23.361Z,95367.91
2023-12-01T02:25:49.826Z,95384.25
2023-12-01T02:28:16.285Z,95388.00
2023-12-01T02:30:42.813Z,95384.03
2023-12-01T02:33:09.274Z,95380.31
2023-12-01T02:35:35.728Z,95368.00
2023-12-01T02:38:02.240Z,95366.16
2023-12-01T02:40:28.732Z,95372.19
2023-12-01T02:42:55.154Z,95376.13
2023-12-01T02:45:21.622Z,95383.91
2023-12-01T02:47:48.094Z,95388.66
2023-12-01T02:50:14.544Z,95397.28
2023-12-01T02:52:40.948Z,95392.75
2023-12-01T02:55:07.374Z,95388.22
2023-12-01T02:57:33.940Z,95393.56
2023-12-01T03:00:00.421Z,95391.34
2023-12-01T03:02:26.933Z,95401.44
2023-12-01T03:04:53.343Z,95397.75
2023-12-01T03:07:19.785Z,95402.84
2023-12-01T03:09:46.249Z,95394.22
2023-12-01T03:12:12.649Z,95406.56
2023-12-01T03:14:39.096Z,95413.31
2023-12-01T03:17:26.802Z,95396.25
2023-12-01T03:19:53.372Z,95388.22
2023-12-01T03:22:19.783Z,95383.31
2023-12-01T03:24:46.217Z,95378.34
2023-12-01T03:27:12.641Z,95378.81
2023-12-01T03:29:39.153Z,95388.78
2023-12-01T03:32:05.616Z,95388.16
2023-12-01T03:34:32.105Z,95392.03
2023-12-01T03:36:58.515Z,95383.53
2023-12-01T03:39:24.966Z,95379.25
2023-12-01T03:41:51.371Z,95378.31
2023-12-01T03:44:17.938Z,95373.53
2023-12-01T03:46:44.475Z,95390.75
2023-12-01T03:49:10.938Z,95396.44
2023-12-01T03:51:37.392Z,95394.00
2023-12-01T03:54:03.815Z,95394.94
2023-12-01T03:56:30.269Z,95400.28
2023-12-01T03:58:56.649Z,95390.66
2023-12-01T04:01:23.089Z,95385.09
2023-12-01T04:03:49.604Z,95375.22
2023-12-01T04:06:16.552Z,95366.97
2023-12-01T04:08:43.033Z,95362.22
2023-12-01T04:11:09.450Z,95361.16
2023-12-01T04:13:35.908Z,95346.53
2023-12-01T04:16:02.443Z,95346.19
2023-12-01T04:18:28.908Z,95365.25
2023-12-01T04:20:55.326Z,95362.22
2023-12-01T04:23:21.733Z,95382.31
2023-12-01T04:25:48.344Z,95386.38
2023-12-01T04:28:14.861Z,95371.53
2023-12-01T04:30:41.342Z,95366.56
2023-12-01T04:33:07.847Z,95362.00
2023-12-01T04:35:34.351Z,95363.66
2023-12-01T04:38:03.861Z,95367.69
2023-12-01T04:40:30.337Z,95373.41
2023-12-01T04:42:56.797Z,95377.72
2023-12-01T04:45:23.205Z,95380.97
2023-12-01T04:47:49.688Z,95382.00
2023-12-01T04:50:16.134Z,95395.16
2023-12-01T04:52:42.625Z,95406.44
2023-12-01T04:55:09.110Z,95403.75
2023-12-01T04:57:35.603Z,95416.88
2023-12-01T05:00:02.066Z,95416.09
2023-12-01T05:02:28.577Z,95417.94
2023-12-01T05:04:55.076Z,95409.91
2023-12-01T05:07:21.719Z,95425.00
2023-12-01T05:09:48.177Z,95421.38
2023-12-01T05:12:14.615Z,95410.47
2023-12-01T05:14:41.124Z,95408.84
2023-12-01T05:17:07.546Z,95410.25
2023-12-01T05:19:33.953Z,95408.63
2023-12-01T05:22:00.400Z,95406.53
2023-12-01T05:24:26.934Z,95405.47
2023-12-01T05:26:55.242Z,95412.47
2023-12-01T05:29:21.882Z,95415.38
2023-12-01T05:31:48.305Z,95414.31
2023-12-01T05:34:14.881Z,95427.25
2023-12-01T05:36:41.467Z,95427.25
2023-12-01T05:39:07.901Z,95422.09
2023-12-01T05:41:34.329Z,95416.75
2023-12-01T05:44:00.808Z,95427.44
2023-12-01T05:46:27.333Z,95427.25
2023-12-01T05:48:53.811Z,95441.19
2023-12-01T05:51:20.243Z,95428.03
2023-12-01T05:53:46.651Z,95430.50
2023-12-01T05:56:13.082Z,95435.59
2023-12-01T05:58:39.519Z,95434.56
2023-12-01T06:01:06.032Z,95432.13
2023-12-01T06:03:32.477Z,95441.75
2023-12-01T06:05:58.979Z,95443.19
2023-12-01T06:08:25.386Z,95442.72
2023-12-01T06:10:51.802Z,95453.44
2023-12-01T06:13:18.308Z,95445.19
2023-12-01T06:15:44.828Z,95439.63
2023-12-01T06:18:11.320Z,95451.13
2023-12-01T06:20:37.784Z,95461.03
2023-12-01T06:23:04.280Z,95467.41
2023-12-01T06:25:31.045Z,95449.50
2023-12-01T06:27:57.678Z,95450.31
2023-12-01T06:30:24.340Z,95444.97
2023-12-01T06:32:50.775Z,95447.66
2023-12-01T06:35:17.246Z,95451.94
2023-12-01T06:37:45.995Z,95462.16
2023-12-01T06:40:13.526Z,95470.78
2023-12-01T06:42:40.333Z,95468.91
2023-12-01T06:45:06.822Z,95472.44
2023-12-01T06:47:33.333Z,95466.84
2023-12-01T06:49:59.793Z,95471.97
2023-12-01T06:52:27.643Z,95469.88
2023-12-01T06:54:54.950Z,95471.75
2023-12-01T06:57:21.390Z,95484.88
2023-12-01T06:59:47.834Z,95495.56
2023-12-01T07:02:14.297Z,95495.34
2023-12-01T07:04:40.737Z,95499.66
2023-12-01T07:07:07.219Z,95486.28
2023-12-01T07:09:35.124Z,95478.84
2023-12-01T07:12:02.643Z,95493.00
2023-12-01T07:14:29.077Z,95487.66
2023-12-01T07:16:55.551Z,95496.75
2023-12-01T07:19:22.047Z,95504.16
2023-12-01T07:21:48.495Z,95503.38
2023-12-01T07:24:14.994Z,95506.84
2023-12-01T07:26:41.387Z,95502.34
2023-12-01T07:29:07.869Z,95495.91
2023-12-01T07:31:34.317Z,95486.84
2023-12-01T07:34:00.778Z,95495.47
2023-12-01T07:36:35.531Z,95504.31
2023-12-01T07:39:07.511Z,95489.06
2023-12-01T07:41:34.676Z,95482.69
2023-12-01T07:44:01.102Z,95481.03
2023-12-01T07:46:27.600Z,95479.22
2023-12-01T07:48:54.110Z,95474.09
2023-12-01T07:51:35.827Z,95463.59
2023-12-01T07:54:02.236Z,95460.47
2023-12-01T07:56:28.644Z,95466.88
2023-12-01T07:58:55.074Z,95468.75
2023-12-01T08:01:21.478Z,95481.03
2023-12-01T08:03:51.229Z,95475.03
2023-12-01T08:06:17.642Z,95483.06
2023-12-01T08:08:44.070Z,95489.22
2023-12-01T08:11:10.613Z,95490.94
2023-12-01T08:13:37.055Z,95492.34
2023-12-01T08:16:03.606Z,95500.59
2023-12-01T08:18:30.090Z,95515.47
2023-12-01T08:20:56.623Z,95508.94
2023-12-01T08:23:23.121Z,95513.50
2023-12-01T08:25:49.535Z,95511.84
2023-12-01T08:28:16.013Z,95501.16
2023-12-01T08:30:48.809Z,95489.41
2023-12-01T08:33:16.066Z,95484.88
2023-12-01T08:35:42.678Z,95481.03
2023-12-01T08:38:09.119Z,95485.34
2023-12-01T08:40:43.084Z,95493.16
2023-12-01T08:43:10.649Z,95501.63
2023-12-01T08:45:37.121Z,95504.88
2023-12-01T08:48:03.645Z,95487.34
2023-12-01T08:50:30.169Z,95479.44
2023-12-01T08:52:56.611Z,95481.66
2023-12-01T08:55:23.111Z,95475.84
2023-12-01T08:57:49.582Z,95472.94
2023-12-01T09:00:16.149Z,95460.97
2023-12-01T09:02:42.588Z,95463.88
2023-12-01T09:05:09.110Z,95473.16
2023-12-01T09:07:35.554Z,95475.84
2023-12-01T09:10:02.039Z,95479.44
2023-12-01T09:12:28.700Z,95451.91
2023-12-01T09:14:55.522Z,95447.34
2023-12-01T09:17:22.197Z,95435.84
2023-12-01T09:19:48.748Z,95427.44
2023-12-01T09:22:15.254Z,95429.56
2023-12-01T09:24:41.672Z,95432.44
2023-12-01T09:27:08.147Z,95436.97
2023-12-01T09:29:34.693Z,95440.69
2023-12-01T09:32:01.161Z,95440.69
2023-12-01T09:34:27.593Z,95442.34
2023-12-01T09:36:54.026Z,95450.34
2023-12-01T09:39:20.603Z,95439.19
2023-12-01T09:41:47.120Z,95433.28
2023-12-01T09:44:14.652Z,95438.38
2023-12-01T09:46:41.470Z,95448.03
2023-12-01T09:49:07.908Z,95460.59
2023-12-01T09:51:34.361Z,95462.69
2023-12-01T09:54:00.869Z,95444.44
2023-12-01T09:56:27.336Z,95453.50
2023-12-01T09:58:53.740Z,95448.38
2023-12-01T10:01:20.176Z,95459.31
2023-12-01T10:03:46.764Z,95456.88
2023-12-01T10:06:13.294Z,95451.28
2023-12-01T10:08:39.881Z,95447.53
2023-12-01T10:11:06.354Z,95447.34
2023-12-01T10:13:32.804Z,95441.53
2023-12-01T10:15:59.227Z,95436.41
2023-12-01T10:18:27.197Z,95439.88
2023-12-01T10:20:54.463Z,95439.09
2023-12-01T10:23:21.019Z,95439.88
2023-12-01T10:25:47.427Z,95429.88
2023-12-01T10:28:14.153Z,95418.13
2023-12-01T10:30:40.735Z,95413.94
2023-12-01T10:33:07.220Z,95411.03
2023-12-01T10:35:33.686Z,95411.63
2023-12-01T10:38:00.087Z,95402.34
2023-12-01T10:40:26.620Z,95392.91
2023-12-01T10:42:53.024Z,95393.25
2023-12-01T10:45:19.472Z,95394.88
2023-12-01T10:47:46.023Z,95398.97
2023-12-01T10:50:12.505Z,95392.53
2023-12-01T10:52:38.901Z,95395.22
2023-12-01T10:55:05.309Z,95389.88
2023-12-01T10:57:31.678Z,95395.00
2023-12-01T10:59:59.919Z,95387.56
2023-12-01T11:02:26.691Z,95381.75
2023-12-01T11:04:53.259Z,95375.91
2023-12-01T11:07:19.742Z,95383.38
2023-12-01T11:09:46.140Z,95381.03
2023-12-01T11:12:12.616Z,95378.38
2023-12-01T11:14:39.026Z,95383.94
2023-12-01T11:17:05.491Z,95381.28
2023-12-01T11:19:31.943Z,95377.56
2023-12-01T11:21:58.436Z,95384.56
2023-12-01T11:24:24.907Z,95375.22
2023-12-01T11:26:51.361Z,95368.03
2023-12-01T11:29:17.797Z,95362.69
2023-12-01T11:31:44.353Z,95368.03
2023-12-01T11:34:11.064Z,95367.00
2023-12-01T11:36:37.832Z,95369.06
2023-12-01T11:39:04.397Z,95360.22
2023-12-01T11:41:30.863Z,95358.38
2023-12-01T11:43:57.290Z,95354.06
2023-12-01T11:46:23.815Z,95350.81
2023-12-01T11:48:50.603Z,95355.91
2023-12-01T11:51:17.187Z,95350.25
2023-12-01T11:53:43.714Z,95349.41
2023-12-01T11:56:10.130Z,95348.25
2023-12-01T11:58:36.573Z,95349.75
2023-12-01T12:01:02.954Z,95356.16
2023-12-01T12:03:29.405Z,95357.78
2023-12-01T12:05:56.142Z,95365.22
2023-12-01T12:08:22.615Z,95367.91
2023-12-01T12:10:49.075Z,95357.22
2023-12-01T12:13:15.725Z,95366.25
2023-12-01T12:15:42.230Z,95359.28
2023-12-01T12:18:08.974Z,95346.59
2023-12-01T12:20:35.519Z,95350.09
2023-12-01T12:23:01.972Z,95353.00
2023-12-01T12:25:28.410Z,95343.72
2023-12-01T12:27:54.889Z,95344.88
2023-12-01T12:30:21.414Z,95347.31
2023-12-01T12:32:48.065Z,95343.84
2023-12-01T12:35:14.680Z,95353.84
2023-12-01T12:37:41.077Z,95349.34
2023-12-01T12:40:07.475Z,95356.91
2023-12-01T12:42:33.949Z,95350.28
2023-12-01T12:45:00.437Z,95355.81
2023-12-01T12:47:26.857Z,95360.91
2023-12-01T12:49:53.281Z,95369.03
2023-12-01T12:52:19.648Z,95373.81
2023-12-01T12:54:46.045Z,95368.38
2023-12-01T12:57:12.494Z,95370.81
2023-12-01T12:59:39.005Z,95369.97
2023-12-01T13:02:05.490Z,95378.47
2023-12-01T13:04:32.002Z,95381.03
2023-12-01T13:06:58.451Z,95380.91
2023-12-01T13:09:24.855Z,95379.97
2023-12-01T13:11:51.814Z,95382.53
2023-12-01T13:14:18.201Z,95385.44
2023-12-01T13:16:52.692Z,95394.03
2023-12-01T13:19:22.657Z,95391.59
2023-12-01T13:21:51.102Z,95383.13
2023-12-01T13:24:19.428Z,95373.03
2023-12-01T13:26:45.934Z,95363.94
2023-12-01T13:29:12.476Z,95362.31
2023-12-01T13:31:38.977Z,95361.25
2023-12-01T13:34:05.564Z,95359.41
2023-12-01T13:36:32.041Z,95365.56
2023-12-01T13:38:58.563Z,95365.56
2023-12-01T13:41:25.053Z,95374.44
2023-12-01T13:43:51.449Z,95367.19
2023-12-01T13:46:17.994Z,95364.53
2023-12-01T13:48:44.559Z,95355.91
2023-12-01T13:51:11.125Z,95351.63
2023-12-01T13:53:37.684Z,95355.34
2023-12-01T13:56:08.725Z,95360.31
2023-12-01T13:58:37.688Z,95358.34
2023-12-01T14:01:04.203Z,95368.47
2023-12-01T14:03:32.394Z,95362.38
2023-12-01T14:05:59.346Z,95355.63
2023-12-01T14:08:25.881Z,95357.75
2023-12-01T14:10:52.306Z,95349.72
2023-12-01T14:13:18.720Z,95362.84
2023-12-01T14:15:45.168Z,95357.03
2023-12-01T14:18:11.667Z,95355.16
2023-12-01T14:20:38.109Z,95370.88
2023-12-01T14:23:04.510Z,95371.09
2023-12-01T14:25:30.895Z,95367.59
2023-12-01T14:27:57.335Z,95366.56
2023-12-01T14:30:23.765Z,95358.31
2023-12-01T14:32:50.273Z,95363.09
2023-12-01T14:35:16.816Z,95365.53
2023-12-01T14:37:43.311Z,95355.63
2023-12-01T14:40:09.693Z,95354.00
2023-12-01T14:42:36.071Z,95350.75
2023-12-01T14:45:02.519Z,95344.56
2023-12-01T14:47:29.650Z,95329.59
2023-12-01T14:49:56.122Z,95329.59
2023-12-01T14:52:22.517Z,95334.94
2023-12-01T14:54:48.929Z,95335.19
2023-12-01T14:57:15.342Z,95323.09
2023-12-01T14:59:43.873Z,95322.94
2023-12-01T15:02:10.588Z,95317.59
2023-12-01T15:04:37.056Z,95314.94
2023-12-01T15:07:03.486Z,95310.06
2023-12-01T15:09:29.903Z,95311.09
2023-12-01T15:11:56.324Z,95311.94
2023-12-01T15:14:22.732Z,95316.44
2023-12-01T15:16:49.361Z,95319.81
2023-12-01T15:19:15.784Z,95315.38
2023-12-01T15:21:42.164Z,95318.63
2023-12-01T15:24:08.556Z,95320.69
2023-12-01T15:26:34.992Z,95319.31
2023-12-01T15:29:01.387Z,95321.75
2023-12-01T15:31:27.817Z,95331.19
2023-12-01T15:33:54.276Z,95332.22
2023-12-01T15:36:20.797Z,95334.28
2023-12-01T15:38:47.245Z,95337.41
2023-12-01T15:41:13.643Z,95346.03
2023-12-01T15:43:40.022Z,95346.13
2023-12-01T15:46:06.448Z,95344.66
2023-12-01T15:48:32.963Z,95343.38
2023-12-01T15:50:59.478Z,95330.25
2023-12-01T15:53:25.929Z,95338.03
2023-12-01T15:55:52.334Z,95332.47
2023-12-01T15:58:18.784Z,95327.69
2023-12-01T16:00:45.360Z,95316.78
2023-12-01T16:03:11.981Z,95323.09
2023-12-01T16:05:38.453Z,95327.59
2023-12-01T16:08:04.916Z,95322.47
2023-12-01T16:10:31.342Z,95315.72
2023-12-01T16:12:57.743Z,95329.09
2023-12-01T16:15:24.171Z,95330.72
2023-12-01T16:17:50.708Z,95330.97
2023-12-01T16:20:17.285Z,95333.03
2023-12-01T16:22:43.825Z,95325.25
2023-12-01T16:25:10.314Z,95328.97
2023-12-01T16:27:36.741Z,95347.69
2023-12-01T16:30:03.259Z,95365.78
2023-12-01T16:32:29.828Z,95360.44
2023-12-01T16:34:56.309Z,95360.69
2023-12-01T16:37:22.786Z,95365.44
2023-12-01T16:39:51.764Z,95363.44
2023-12-01T16:42:18.204Z,95366.09
2023-12-01T16:44:44.642Z,95364.03
2023-12-01T16:47:11.211Z,95348.59
2023-12-01T16:49:37.755Z,95338.72
2023-12-01T16:52:04.216Z,95341.41
2023-12-01T16:54:30.663Z,95333.16
2023-12-01T16:56:57.132Z,95313.63
2023-12-01T16:59:23.588Z,95308.88
2023-12-01T17:01:50.020Z,95308.06
2023-12-01T17:04:16.555Z,95303.75
2023-12-01T17:06:43.027Z,95304.56
2023-12-01T17:09:09.459Z,95302.34
2023-12-01T17:11:35.976Z,95305.03
2023-12-01T17:14:02.436Z,95290.88
2023-12-01T17:16:28.935Z,95297.25
2023-12-01T17:18:55.535Z,95302.81
2023-12-01T17:21:24.441Z,95295.03
2023-12-01T17:23:50.919Z,95293.25
2023-12-01T17:26:17.394Z,95298.59
2023-12-01T17:28:43.819Z,95316.50
2023-12-01T17:31:10.247Z,95310.34
2023-12-01T17:33:36.766Z,95324.75
2023-12-01T17:36:03.330Z,95327.41
2023-12-01T17:38:29.859Z,95326.84
2023-12-01T17:40:56.293Z,95326.84
2023-12-01T17:43:22.725Z,95326.84
2023-12-01T17:45:49.158Z,95317.19
2023-12-01T17:48:15.779Z,95308.34
2023-12-01T17:50:42.249Z,95297.91
2023-12-01T17:53:08.651Z,95305.91
2023-12-01T17:55:35.069Z,95317.50
2023-12-01T17:58:01.535Z,95316.47
2023-12-01T18:00:27.996Z,95301.50
2023-12-01T18:02:54.473Z,95298.00
2023-12-01T18:05:21.010Z,95293.25
2023-12-01T18:07:47.575Z,95303.69
2023-12-01T18:10:14.058Z,95310.91
2023-12-01T18:12:40.481Z,95308.00
2023-12-01T18:15:06.990Z,95305.06
2023-12-01T18:17:33.575Z,95324.00
2023-12-01T18:20:00.055Z,95325.25
2023-12-01T18:22:26.550Z,95334.31
2023-12-01T18:24:52.951Z,95338.63
2023-12-01T18:27:19.489Z,95342.94
2023-12-01T18:29:46.014Z,95347.81
2023-12-01T18:32:12.445Z,95354.75
2023-12-01T18:34:38.888Z,95353.16
2023-12-01T18:37:05.333Z,95357.44
2023-12-01T18:39:31.814Z,95366.50
2023-12-01T18:41:58.321Z,95373.69
2023-12-01T18:44:24.794Z,95379.25
2023-12-01T18:46:51.406Z,95383.56
2023-12-01T18:49:17.897Z,95382.53
2023-12-01T18:51:44.400Z,95383.09
2023-12-01T18:54:10.963Z,95386.38
2023-12-01T18:56:37.761Z,95381.84
2023-12-01T18:59:04.262Z,95378.59
2023-12-01T19:01:30.814Z,95385.66
2023-12-01T19:03:57.413Z,95382.59
2023-12-01T19:06:23.967Z,95373.41
2023-12-01T19:08:50.566Z,95372.00
2023-12-01T19:11:17.111Z,95369.31
2023-12-01T19:13:43.572Z,95370.25
2023-12-01T19:16:10.049Z,95380.19
2023-12-01T19:18:38.581Z,95382.28
2023-12-01T19:21:05.289Z,95382.06
2023-12-01T19:23:31.792Z,95373.81
2023-12-01T19:25:58.201Z,95381.81
2023-12-01T19:28:24.652Z,95382.84
2023-12-01T19:30:51.161Z,95389.22
2023-12-01T19:33:20.819Z,95389.47
2023-12-01T19:35:47.450Z,95394.00
2023-12-01T19:38:13.899Z,95395.41
2023-12-01T19:40:40.398Z,95398.88
2023-12-01T19:43:06.833Z,95399.69
2023-12-01T19:45:33.390Z,95390.28
2023-12-01T19:47:59.924Z,95389.91
2023-12-01T19:50:26.387Z,95389.56
2023-12-01T19:52:52.793Z,95383.03
2023-12-01T19:55:19.220Z,95384.28
2023-12-01T19:57:45.636Z,95374.88
2023-12-01T20:00:15.029Z,95372.88
2023-12-01T20:02:41.489Z,95367.53
2023-12-01T20:05:07.993Z,95369.53
2023-12-01T20:07:34.493Z,95373.38
2023-12-01T20:10:00.919Z,95377.47
2023-12-01T20:12:27.383Z,95367.38
2023-12-01T20:14:53.848Z,95359.13
2023-12-01T20:17:20.274Z,95352.19
2023-12-01T20:19:46.694Z,95359.38
2023-12-01T20:22:13.122Z,95350.31
2023-12-01T20:24:39.533Z,95355.88
2023-12-01T20:27:06.008Z,95364.56
2023-12-01T20:29:32.438Z,95369.06
2023-12-01T20:31:58.859Z,95377.09
2023-12-01T20:34:25.273Z,95372.78
2023-12-01T20:36:51.781Z,95372.59
2023-12-01T20:39:18.282Z,95372.59
2023-12-01T20:41:44.724Z,95380.13
2023-12-01T20:44:11.143Z,95364.13
2023-12-01T20:46:37.620Z,95343.81
2023-12-01T20:49:04.102Z,95349.59
2023-12-01T20:51:30.585Z,95361.53
2023-12-01T20:53:57.179Z,95372.19
2023-12-01T20:56:23.597Z,95384.50
2023-12-01T20:58:50.042Z,95387.19
2023-12-01T21:01:18.381Z,95396.78
2023-12-01T21:03:46.152Z,95397.84
2023-12-01T21:06:12.629Z,95398.66
2023-12-01T21:08:39.075Z,95400.53
2023-12-01T21:11:05.525Z,95394.13
2023-12-01T21:13:31.962Z,95388.44
2023-12-01T21:15:58.367Z,95393.53
2023-12-01T21:18:24.910Z,95390.31
2023-12-01T21:20:51.407Z,95384.97
2023-12-01T21:23:17.884Z,95385.19
2023-12-01T21:25:44.348Z,95381.91
2023-12-01T21:28:10.802Z,95398.72
2023-12-01T21:30:37.271Z,95393.38
2023-12-01T21:33:05.996Z,95395.88
2023-12-01T21:35:34.190Z,95387.63
2023-12-01T21:38:00.615Z,95390.06
2023-12-01T21:40:27.077Z,95392.97
2023-12-01T21:42:53.518Z,95388.44
2023-12-01T21:45:20.006Z,95396.44
2023-12-01T21:47:46.423Z,95406.88
2023-12-01T21:50:13.066Z,95411.19
2023-12-01T21:52:39.542Z,95403.41
2023-12-01T21:55:05.961Z,95405.03
2023-12-01T21:57:32.468Z,95401.56
2023-12-01T21:59:58.975Z,95389.00
2023-12-01T22:02:25.518Z,95379.41
2023-12-01T22:04:52.026Z,95383.56
2023-12-01T22:07:18.445Z,95395.88
2023-12-01T22:09:44.865Z,95397.69
2023-12-01T22:12:11.311Z,95388.66
2023-12-01T22:14:37.800Z,95392.13
2023-12-01T22:17:04.237Z,95389.47
2023-12-01T22:19:30.811Z,95392.34
2023-12-01T22:21:59.814Z,95394.22
2023-12-01T22:24:26.584Z,95394.44
2023-12-01T22:26:53.028Z,95390.94
2023-12-01T22:29:19.483Z,95384.22
2023-12-01T22:31:45.948Z,95391.63
2023-12-01T22:34:12.398Z,95380.16
2023-12-01T22:36:38.797Z,95384.66
2023-12-01T22:39:05.282Z,95403.19
2023-12-01T22:41:31.793Z,95408.75
2023-12-01T22:44:01.788Z,95400.53
2023-12-01T22:46:28.533Z,95396.22
2023-12-01T22:48:55.119Z,95394.34
2023-12-01T22:51:21.632Z,95380.22
2023-12-01T22:53:48.178Z,95390.88
2023-12-01T22:56:14.702Z,95401.78
2023-12-01T22:58:43.133Z,95398.31
2023-12-01T23:01:09.647Z,95388.66
2023-12-01T23:03:36.327Z,95381.91
2023-12-01T23:06:03.171Z,95392.34
2023-12-01T23:08:29.725Z,95397.91
2023-12-01T23:11:03.867Z,95391.78
2023-12-01T23:13:30.370Z,95385.19
2023-12-01T23:15:56.854Z,95382.28
2023-12-01T23:18:23.465Z,95390.31
2023-12-01T23:20:50.003Z,95400.97
2023-12-01T23:23:16.539Z,95406.88
2023-12-01T23:25:43.006Z,95415.69
2023-12-01T23:28:09.577Z,95414.88
2023-12-01T23:30:36.178Z,95423.13
2023-12-01T23:33:02.796Z,95423.13
2023-12-01T23:35:29.423Z,95409.78
2023-12-01T23:37:55.909Z,95408.75
2023-12-01T23:40:22.351Z,95416.53
2023-12-01T23:42:48.818Z,95411.19
2023-12-01T23:45:15.332Z,95416.53
2023-12-01T23:47:41.916Z,95416.53
2023-12-01T23:50:08.426Z,95402.16
2023-12-01T23:52:34.952Z,95399.69
2023-12-01T23:55:01.441Z,95399.69
2023-12-01T23:57:27.946Z,95395.19
2023-12-01T23:59:54.482Z,95391.69
